Time;durP1;ratioP1;P1;durP2;ratioP2;P2;SDS_P1;SDS_P2;PMS_P1;PMS_P2;Temp;Humidity;BMP_temperature;BMP_pressure;BME280_temperature;BME280_humidity;BME280_pressure;Samples;Min_cycle;Max_cycle;Signal;HPM_P1;HPM_P2
2021/07/24 00:01:13;;;;;;;12.83;7.23;;;16.60;99.90;;;;;;5154397;27;20208;-66
2021/07/24 00:04:04;;;;;;;12.57;7.53;;;16.60;99.90;;;;;;5154894;27;20198;-66
2021/07/24 00:06:52;;;;;;;14.03;7.83;;;16.60;99.90;;;;;;5154895;27;20205;-66
2021/07/24 00:09:41;;;;;;;13.30;7.90;;;16.60;99.90;;;;;;5154260;27;20213;-66
2021/07/24 00:12:29;;;;;;;13.87;7.50;;;16.50;99.90;;;;;;5154471;27;20213;-66
2021/07/24 00:15:19;;;;;;;11.97;7.03;;;16.50;99.90;;;;;;5154288;27;20670;-66
2021/07/24 00:18:08;;;;;;;14.53;6.80;;;16.60;99.90;;;;;;5154361;27;20201;-66
2021/07/24 00:20:58;;;;;;;13.17;7.30;;;16.60;99.90;;;;;;5154152;27;20210;-66
2021/07/24 00:23:47;;;;;;;14.23;7.50;;;16.50;99.90;;;;;;5154474;27;20214;-66
2021/07/24 00:26:35;;;;;;;11.17;7.10;;;16.60;99.90;;;;;;5155272;27;20200;-66
2021/07/24 00:29:24;;;;;;;12.47;7.37;;;16.60;99.90;;;;;;5154754;27;20676;-66
2021/07/24 00:32:13;;;;;;;11.63;7.10;;;16.50;99.90;;;;;;5154054;27;20209;-66
2021/07/24 00:35:01;;;;;;;13.27;7.10;;;16.40;99.90;;;;;;5153840;27;20336;-66
2021/07/24 00:37:52;;;;;;;13.27;7.17;;;16.40;99.90;;;;;;5154141;27;20201;-66
2021/07/24 00:40:44;;;;;;;18.03;7.37;;;16.30;99.90;;;;;;5154072;27;20198;-66
2021/07/24 00:43:36;;;;;;;13.83;7.77;;;16.20;99.90;;;;;;5154546;27;20683;-66
2021/07/24 00:46:24;;;;;;;15.13;7.10;;;16.20;99.90;;;;;;5153703;27;20218;-66
2021/07/24 00:49:13;;;;;;;12.43;6.83;;;16.10;99.90;;;;;;5154266;27;20280;-66
2021/07/24 00:52:01;;;;;;;10.83;7.30;;;16.10;99.90;;;;;;5154321;27;20207;-66
2021/07/24 00:54:53;;;;;;;12.10;7.70;;;16.10;99.90;;;;;;5111831;28;20210;-66
2021/07/24 00:57:42;;;;;;;14.80;7.47;;;16.00;99.90;;;;;;5112813;28;20277;-66
2021/07/24 01:00:30;;;;;;;12.27;7.90;;;15.90;99.90;;;;;;5112734;28;20196;-66
2021/07/24 01:03:19;;;;;;;15.47;7.57;;;15.80;99.90;;;;;;5112761;28;20199;-66
2021/07/24 01:06:08;;;;;;;12.83;7.53;;;15.80;99.90;;;;;;5112598;28;20568;-66
2021/07/24 01:08:57;;;;;;;16.17;8.07;;;15.70;99.90;;;;;;5112485;28;20245;-66
2021/07/24 01:11:47;;;;;;;11.00;7.33;;;15.60;99.90;;;;;;5112777;28;20583;-66
2021/07/24 01:14:37;;;;;;;19.20;7.73;;;15.60;99.90;;;;;;5112504;28;20206;-66
2021/07/24 01:17:26;;;;;;;14.70;8.17;;;15.60;99.90;;;;;;5112534;28;20207;-66
2021/07/24 01:20:16;;;;;;;14.93;7.77;;;15.50;99.90;;;;;;5112428;28;20208;-66
2021/07/24 01:23:07;;;;;;;15.50;7.93;;;15.40;99.90;;;;;;5112400;28;20205;-66
2021/07/24 01:25:56;;;;;;;14.50;7.50;;;15.40;99.90;;;;;;5112293;28;20672;-66
2021/07/24 01:28:44;;;;;;;12.60;7.77;;;15.40;99.90;;;;;;5112243;28;20207;-66
2021/07/24 01:31:34;;;;;;;15.97;7.87;;;15.30;99.90;;;;;;5112318;28;20678;-66
2021/07/24 01:34:22;;;;;;;13.03;7.60;;;15.20;99.90;;;;;;5111603;28;20206;-66
2021/07/24 01:37:10;;;;;;;12.23;7.67;;;15.20;99.90;;;;;;5111995;28;20271;-66
2021/07/24 01:40:01;;;;;;;14.77;8.37;;;15.20;99.90;;;;;;5111968;28;20324;-66
2021/07/24 01:42:49;;;;;;;14.80;8.17;;;15.10;99.90;;;;;;5112153;28;20199;-66
2021/07/24 01:45:40;;;;;;;13.90;8.33;;;15.10;99.90;;;;;;5111753;28;20278;-66
2021/07/24 01:48:35;;;;;;;13.00;8.37;;;15.10;99.90;;;;;;5111880;28;20663;-66
2021/07/24 01:54:33;;;;;;;17.63;9.10;;;15.00;99.90;;;;;;5150907;27;20245;-66
2021/07/24 01:57:24;;;;;;;17.10;9.30;;;15.00;99.90;;;;;;5152828;27;20199;-66
2021/07/24 02:00:14;;;;;;;17.00;8.60;;;14.90;99.90;;;;;;5152829;27;20201;-66
2021/07/24 02:03:07;;;;;;;14.37;8.90;;;14.90;99.90;;;;;;5152780;27;20566;-66
2021/07/24 02:06:00;;;;;;;17.70;8.60;;;14.80;99.90;;;;;;5153273;27;20198;-66
2021/07/24 02:08:50;;;;;;;14.67;9.00;;;14.80;99.90;;;;;;5151951;27;20566;-66
2021/07/24 02:11:39;;;;;;;15.00;8.97;;;14.80;99.90;;;;;;5152884;27;20253;-66
2021/07/24 02:14:34;;;;;;;13.50;8.57;;;14.80;99.90;;;;;;5152168;27;20322;-66
2021/07/24 02:17:23;;;;;;;12.23;8.60;;;14.80;99.90;;;;;;5151860;27;20202;-66
2021/07/24 02:20:13;;;;;;;12.37;7.77;;;14.80;99.90;;;;;;5151862;27;20205;-66
2021/07/24 02:23:02;;;;;;;14.27;8.73;;;14.80;99.90;;;;;;5152381;27;20775;-66
2021/07/24 02:25:50;;;;;;;15.90;8.53;;;14.80;99.90;;;;;;5151661;27;20202;-66
2021/07/24 02:28:39;;;;;;;14.97;8.47;;;14.80;99.90;;;;;;5151736;27;20204;-66
2021/07/24 02:31:30;;;;;;;13.33;8.73;;;14.70;99.90;;;;;;5151501;27;20649;-66
2021/07/24 02:34:19;;;;;;;15.40;9.03;;;14.70;99.90;;;;;;5151633;27;20205;-66
2021/07/24 02:37:08;;;;;;;12.87;8.77;;;14.70;99.90;;;;;;5151819;27;20201;-66
2021/07/24 02:39:56;;;;;;;14.50;8.37;;;14.70;99.90;;;;;;5152416;27;20201;-66
2021/07/24 02:42:45;;;;;;;14.57;8.47;;;14.70;99.90;;;;;;5151811;27;20663;-66
2021/07/24 02:45:33;;;;;;;16.13;9.50;;;14.70;99.90;;;;;;5151587;27;20241;-66
2021/07/24 02:48:23;;;;;;;19.40;9.43;;;14.70;99.90;;;;;;5151830;27;20250;-66
2021/07/24 02:51:12;;;;;;;14.33;9.07;;;14.70;99.90;;;;;;5151813;27;20642;-66
2021/07/24 02:54:01;;;;;;;14.67;8.73;;;14.70;99.90;;;;;;5150959;27;20635;-66
2021/07/24 02:57:10;;;;;;;14.93;9.40;;;14.60;99.90;;;;;;5151078;27;20203;-66
2021/07/24 02:59:58;;;;;;;13.47;8.40;;;14.60;99.90;;;;;;5151522;27;20199;-66
2021/07/24 03:02:45;;;;;;;15.90;8.40;;;14.60;99.90;;;;;;5150907;27;20201;-66
2021/07/24 03:05:34;;;;;;;19.33;9.03;;;14.60;99.90;;;;;;5152378;27;20202;-66
2021/07/24 03:08:21;;;;;;;15.43;9.70;;;14.50;99.90;;;;;;5151125;27;20239;-66
2021/07/24 03:11:09;;;;;;;15.77;9.73;;;14.50;99.90;;;;;;5151482;27;20302;-66
2021/07/24 03:13:57;;;;;;;17.17;8.83;;;14.50;99.90;;;;;;5151147;27;20202;-66
2021/07/24 03:16:44;;;;;;;14.93;8.50;;;14.50;99.90;;;;;;5151571;27;20196;-66
2021/07/24 03:19:32;;;;;;;13.87;9.23;;;14.50;99.90;;;;;;5151243;27;20573;-66
2021/07/24 03:22:21;;;;;;;13.70;9.00;;;14.50;99.90;;;;;;5150855;27;20195;-66
2021/07/24 03:25:09;;;;;;;17.23;9.67;;;14.60;99.90;;;;;;5151490;27;20217;-66
2021/07/24 03:27:57;;;;;;;15.70;9.00;;;14.60;99.90;;;;;;5151542;27;20204;-66
2021/07/24 03:30:44;;;;;;;16.57;9.07;;;14.60;99.90;;;;;;5151328;27;20685;-66
2021/07/24 03:33:32;;;;;;;15.20;9.07;;;14.60;99.90;;;;;;5151022;27;20209;-66
2021/07/24 03:36:21;;;;;;;13.77;8.87;;;14.60;99.90;;;;;;5151009;27;20202;-66
2021/07/24 03:39:12;;;;;;;15.20;8.83;;;14.60;99.90;;;;;;5150989;27;20201;-66
2021/07/24 03:42:00;;;;;;;14.07;8.50;;;14.70;99.90;;;;;;5150969;27;20216;-66
2021/07/24 03:44:50;;;;;;;14.40;8.50;;;14.70;99.90;;;;;;5151170;27;20198;-66
2021/07/24 03:47:39;;;;;;;15.73;9.50;;;14.70;99.90;;;;;;5150811;27;20738;-66
2021/07/24 03:50:28;;;;;;;17.40;9.07;;;14.80;99.90;;;;;;5150633;27;20244;-66
2021/07/24 03:53:17;;;;;;;15.63;8.97;;;14.80;99.90;;;;;;5150952;27;20269;-66
2021/07/24 03:56:08;;;;;;;17.57;9.20;;;14.90;99.90;;;;;;5151180;27;20194;-66
2021/07/24 03:58:55;;;;;;;14.83;8.60;;;14.90;99.90;;;;;;5151068;27;20735;-66
2021/07/24 04:01:45;;;;;;;20.50;9.47;;;14.90;99.90;;;;;;5150595;27;20194;-66
2021/07/24 04:04:35;;;;;;;14.77;8.50;;;15.10;99.90;;;;;;5151160;27;20200;-66
2021/07/24 04:07:22;;;;;;;15.63;8.83;;;15.10;99.90;;;;;;5150471;27;20232;-66
2021/07/24 04:10:13;;;;;;;15.60;8.77;;;15.20;99.90;;;;;;5150340;27;20219;-66
2021/07/24 04:13:04;;;;;;;17.67;8.40;;;15.20;99.90;;;;;;5151276;27;20590;-66
2021/07/24 04:15:53;;;;;;;17.17;8.17;;;15.30;99.90;;;;;;5150751;27;20208;-66
2021/07/24 04:18:43;;;;;;;16.13;8.93;;;15.40;99.90;;;;;;5150326;27;20206;-66
2021/07/24 04:21:31;;;;;;;12.63;8.50;;;15.50;99.90;;;;;;5150422;27;20320;-66
2021/07/24 04:24:22;;;;;;;12.67;8.17;;;15.60;99.90;;;;;;5150979;27;20225;-66
2021/07/24 04:27:10;;;;;;;12.83;8.33;;;15.70;99.90;;;;;;5150703;27;20246;-66
2021/07/24 04:30:00;;;;;;;17.03;8.60;;;15.70;99.90;;;;;;5152308;27;20266;-66
2021/07/24 04:32:47;;;;;;;14.10;8.17;;;15.90;99.90;;;;;;5153982;27;20277;-66
2021/07/24 04:35:35;;;;;;;13.00;7.83;;;16.00;99.90;;;;;;5154707;27;20207;-66
2021/07/24 04:38:23;;;;;;;12.27;7.97;;;16.10;99.90;;;;;;5153953;27;20579;-66
2021/07/24 04:41:16;;;;;;;13.90;9.40;;;16.20;99.90;;;;;;5153827;27;20540;-66
2021/07/24 04:44:04;;;;;;;20.07;9.17;;;16.30;99.90;;;;;;5155315;27;20568;-66
2021/07/24 04:46:53;;;;;;;17.47;9.13;;;16.50;99.90;;;;;;5153903;27;20232;-66
2021/07/24 04:49:43;;;;;;;21.30;9.73;;;16.70;99.90;;;;;;5153902;27;20204;-66
2021/07/24 04:52:30;;;;;;;14.53;9.27;;;16.80;99.90;;;;;;5154242;27;20255;-66
2021/07/24 04:55:18;;;;;;;13.77;8.87;;;17.00;99.90;;;;;;5153436;27;20642;-66
2021/07/24 04:58:08;;;;;;;14.20;9.10;;;17.20;99.90;;;;;;5154164;27;20690;-66
2021/07/24 05:00:57;;;;;;;16.70;9.03;;;17.40;99.90;;;;;;5153560;27;20223;-66
2021/07/24 05:03:49;;;;;;;17.17;9.17;;;17.60;99.90;;;;;;5153635;27;20679;-66
2021/07/24 05:06:37;;;;;;;16.53;8.83;;;17.80;99.90;;;;;;5153196;27;20209;-66
2021/07/24 05:09:26;;;;;;;19.03;8.67;;;18.10;99.90;;;;;;5153297;27;20279;-66
2021/07/24 05:12:15;;;;;;;12.97;8.43;;;18.20;99.90;;;;;;5153751;27;20296;-65
2021/07/24 05:15:10;;;;;;;14.83;8.80;;;18.50;99.90;;;;;;5153603;27;20681;-66
2021/07/24 05:18:01;;;;;;;14.53;8.20;;;18.70;99.90;;;;;;5153681;27;20198;-66
2021/07/24 05:20:50;;;;;;;13.40;8.33;;;19.00;99.90;;;;;;5153088;27;20559;-66
2021/07/24 05:23:37;;;;;;;17.33;8.63;;;19.20;99.90;;;;;;5153467;27;20778;-66
2021/07/24 05:26:25;;;;;;;15.10;8.60;;;19.40;99.90;;;;;;5153606;27;20201;-66
2021/07/24 05:29:13;;;;;;;14.17;8.00;;;19.60;99.90;;;;;;5153631;27;20309;-66
2021/07/24 05:32:00;;;;;;;17.63;8.57;;;19.80;99.90;;;;;;5153652;27;20221;-66
2021/07/24 05:34:48;;;;;;;14.03;8.53;;;20.00;99.90;;;;;;5153127;27;20565;-66
2021/07/24 05:37:37;;;;;;;12.17;8.37;;;20.10;99.90;;;;;;5153285;27;20197;-66
2021/07/24 05:40:25;;;;;;;13.73;9.00;;;20.20;99.90;;;;;;5152821;27;20209;-66
2021/07/24 05:43:12;;;;;;;14.87;8.37;;;20.40;99.90;;;;;;5153210;27;20226;-66
2021/07/24 05:46:01;;;;;;;13.90;8.57;;;20.40;99.90;;;;;;5153069;27;20244;-66
2021/07/24 05:48:48;;;;;;;17.20;8.57;;;20.60;99.90;;;;;;5152430;27;20326;-66
2021/07/24 05:51:44;;;;;;;14.27;8.60;;;20.70;99.90;;;;;;5152632;27;20213;-66
2021/07/24 05:54:34;;;;;;;15.80;8.43;;;20.90;99.90;;;;;;5151872;27;20229;-66
2021/07/24 05:57:22;;;;;;;16.33;8.37;;;21.00;99.90;;;;;;5153237;27;20281;-66
2021/07/24 06:00:13;;;;;;;13.03;8.67;;;21.10;99.90;;;;;;5153136;27;20319;-66
2021/07/24 06:03:01;;;;;;;12.80;8.13;;;21.20;99.90;;;;;;5152230;27;20194;-66
2021/07/24 06:05:48;;;;;;;13.10;7.33;;;21.50;99.90;;;;;;5152232;27;20563;-66
2021/07/24 06:08:36;;;;;;;12.80;7.73;;;21.60;99.90;;;;;;5152757;27;20224;-66
2021/07/24 06:11:25;;;;;;;12.43;7.30;;;21.60;99.90;;;;;;5151798;27;20217;-66
2021/07/24 06:14:13;;;;;;;12.33;7.70;;;21.80;99.90;;;;;;5152595;27;20209;-66
2021/07/24 06:17:00;;;;;;;17.77;7.67;;;21.90;99.90;;;;;;5152455;27;20204;-66
2021/07/24 06:19:48;;;;;;;12.03;6.87;;;22.00;99.90;;;;;;5151792;27;20204;-66
2021/07/24 06:22:36;;;;;;;11.30;7.70;;;22.10;99.90;;;;;;5151891;27;20565;-66
2021/07/24 06:25:23;;;;;;;13.53;7.33;;;22.20;99.90;;;;;;5152324;27;20307;-66
2021/07/24 06:28:13;;;;;;;12.73;7.70;;;22.40;99.90;;;;;;5151696;27;20217;-66
2021/07/24 06:31:02;;;;;;;9.90;6.97;;;22.40;99.90;;;;;;5152102;27;20214;-66
2021/07/24 06:33:49;;;;;;;13.27;6.80;;;22.50;99.90;;;;;;5152937;27;20209;-66
2021/07/24 06:36:39;;;;;;;13.20;7.50;;;22.60;99.90;;;;;;5151481;27;20194;-66
2021/07/24 06:39:27;;;;;;;10.50;6.83;;;22.80;99.90;;;;;;5151647;27;20307;-66
2021/07/24 06:42:14;;;;;;;10.50;6.73;;;22.80;99.90;;;;;;5151388;27;20194;-66
2021/07/24 06:45:04;;;;;;;10.27;5.60;;;22.80;99.90;;;;;;5151468;27;20202;-66
2021/07/24 06:47:52;;;;;;;11.23;6.57;;;22.80;99.90;;;;;;5151298;27;20708;-66
2021/07/24 06:50:40;;;;;;;12.57;6.40;;;22.90;99.90;;;;;;5151578;27;20537;-66
2021/07/24 06:53:27;;;;;;;15.70;6.60;;;23.00;99.90;;;;;;5150552;27;20236;-66
2021/07/24 06:56:15;;;;;;;9.13;6.50;;;23.10;99.90;;;;;;5151205;27;20205;-66
2021/07/24 06:59:03;;;;;;;9.67;6.10;;;23.20;99.90;;;;;;5152557;27;20200;-66
2021/07/24 07:01:52;;;;;;;10.80;6.47;;;23.20;99.90;;;;;;5151176;27;20197;-66
2021/07/24 07:04:40;;;;;;;12.90;6.43;;;23.40;99.90;;;;;;5151883;27;20217;-66
2021/07/24 07:07:28;;;;;;;10.50;6.63;;;23.40;99.90;;;;;;5151230;27;20232;-66
2021/07/24 07:10:16;;;;;;;11.37;6.67;;;23.50;99.90;;;;;;5151799;27;20202;-66
2021/07/24 07:13:04;;;;;;;11.33;7.10;;;23.60;99.90;;;;;;5151087;27;20312;-66
2021/07/24 07:15:52;;;;;;;12.23;7.07;;;23.60;99.90;;;;;;5150885;27;20289;-66
2021/07/24 07:18:41;;;;;;;11.23;6.53;;;23.60;99.90;;;;;;5149539;27;20209;-66
2021/07/24 07:21:29;;;;;;;12.03;7.20;;;23.70;99.90;;;;;;5150802;27;20676;-66
2021/07/24 07:24:17;;;;;;;14.33;7.43;;;23.90;99.90;;;;;;5150838;27;20669;-66
2021/07/24 07:27:06;;;;;;;12.77;7.00;;;23.90;99.90;;;;;;5150844;27;20294;-66
2021/07/24 07:29:54;;;;;;;11.70;7.07;;;24.00;99.90;;;;;;5151463;27;20613;-66
2021/07/24 07:32:42;;;;;;;11.03;7.27;;;24.00;99.90;;;;;;5150842;27;20218;-66
2021/07/24 07:35:31;;;;;;;9.07;6.27;;;24.00;99.90;;;;;;5151433;27;20271;-66
2021/07/24 07:38:19;;;;;;;12.20;6.40;;;24.20;99.90;;;;;;5151017;27;20201;-66
2021/07/24 07:41:08;;;;;;;10.27;6.73;;;24.30;99.90;;;;;;5150940;27;20623;-66
2021/07/24 07:43:57;;;;;;;14.23;6.47;;;24.40;99.90;;;;;;5151298;27;20209;-66
2021/07/24 07:46:44;;;;;;;8.82;6.32;;;24.40;99.90;;;;;;5150607;27;20225;-66
2021/07/24 07:49:32;;;;;;;8.18;5.78;;;24.60;99.90;;;;;;5151191;27;20194;-66
2021/07/24 07:52:21;;;;;;;12.40;6.35;;;24.80;99.90;;;;;;5151435;27;20220;-66
2021/07/24 07:55:11;;;;;;;11.88;6.45;;;24.90;99.90;;;;;;5150793;27;20202;-66
2021/07/24 07:57:58;;;;;;;11.70;5.80;;;24.90;99.90;;;;;;5150514;27;20194;-66
2021/07/24 08:00:46;;;;;;;10.40;5.90;;;25.00;99.90;;;;;;5151880;27;20201;-66
2021/07/24 08:03:34;;;;;;;12.15;5.93;;;25.10;99.90;;;;;;5152634;27;20204;-66
2021/07/24 08:06:26;;;;;;;13.65;6.20;;;25.20;99.90;;;;;;5155567;27;20576;-66
2021/07/24 08:09:15;;;;;;;15.23;5.93;;;25.40;99.90;;;;;;5155129;27;20588;-66
2021/07/24 08:12:03;;;;;;;10.85;6.15;;;25.60;99.90;;;;;;5154926;27;20702;-66
2021/07/24 08:14:50;;;;;;;11.88;6.18;;;25.70;99.90;;;;;;5154077;27;20200;-66
2021/07/24 08:17:38;;;;;;;13.00;6.20;;;25.70;99.90;;;;;;5154418;27;20565;-66
2021/07/24 08:20:26;;;;;;;16.50;6.38;;;25.70;99.90;;;;;;5154710;27;20206;-66
2021/07/24 08:23:14;;;;;;;7.53;5.28;;;25.70;99.90;;;;;;5154133;27;20573;-66
2021/07/24 08:26:03;;;;;;;11.45;5.93;;;26.10;99.90;;;;;;5154813;27;20202;-66
2021/07/24 08:28:50;;;;;;;8.20;5.30;;;26.30;99.90;;;;;;5153868;27;20197;-66
2021/07/24 08:31:38;;;;;;;10.38;5.88;;;26.20;99.90;;;;;;5153856;27;20730;-66
2021/07/24 08:34:26;;;;;;;8.00;5.63;;;26.30;99.90;;;;;;5154099;27;20675;-66
2021/07/24 08:37:13;;;;;;;8.88;5.80;;;26.30;99.90;;;;;;5154619;27;20565;-66
2021/07/24 08:40:01;;;;;;;7.78;5.57;;;26.40;99.90;;;;;;5153811;27;20222;-66
2021/07/24 08:42:50;;;;;;;10.00;5.50;;;26.60;99.90;;;;;;5153883;27;20194;-66
2021/07/24 08:45:38;;;;;;;7.80;5.90;;;26.70;99.90;;;;;;5154625;27;20226;-66
2021/07/24 08:48:26;;;;;;;11.40;6.30;;;26.70;99.90;;;;;;5153858;27;20206;-66
2021/07/24 08:51:17;;;;;;;10.93;6.13;;;26.80;99.90;;;;;;5153584;27;20206;-66
2021/07/24 08:54:05;;;;;;;10.70;6.18;;;27.00;99.90;;;;;;5153330;27;20663;-66
2021/07/24 08:56:53;;;;;;;12.88;7.40;;;27.10;99.90;;;;;;5154362;27;20205;-66
2021/07/24 08:59:42;;;;;;;10.10;6.13;;;27.10;99.90;;;;;;5153463;27;20694;-66
2021/07/24 09:02:30;;;;;;;10.32;6.53;;;27.10;99.90;;;;;;5153605;27;20198;-66
2021/07/24 09:05:18;;;;;;;12.45;6.18;;;27.20;99.90;;;;;;5154344;27;20302;-66
2021/07/24 09:08:07;;;;;;;11.63;6.60;;;27.30;99.90;;;;;;5153302;27;20197;-66
2021/07/24 09:10:58;;;;;;;10.48;6.68;;;27.30;99.90;;;;;;5153407;27;20578;-66
2021/07/24 09:13:45;;;;;;;10.68;6.63;;;27.40;99.90;;;;;;5153593;27;20190;-66
2021/07/24 09:16:34;;;;;;;9.77;6.20;;;27.80;99.90;;;;;;5152801;27;20609;-66
2021/07/24 09:19:23;;;;;;;9.45;6.45;;;27.70;99.90;;;;;;5153765;27;20577;-66
2021/07/24 09:22:26;;;;;;;11.15;6.70;;;27.80;99.90;;;;;;5153684;27;20193;-66
2021/07/24 09:25:15;;;;;;;12.45;6.15;;;27.90;99.90;;;;;;5153764;27;20679;-66
2021/07/24 09:28:02;;;;;;;8.20;6.22;;;27.90;99.90;;;;;;5153684;27;20217;-66
2021/07/24 09:30:50;;;;;;;9.73;6.57;;;28.10;99.90;;;;;;5153213;27;20566;-66
2021/07/24 09:33:39;;;;;;;12.63;6.13;;;28.30;99.90;;;;;;5152765;27;20691;-66
2021/07/24 09:36:36;;;;;;;14.32;6.80;;;28.20;99.90;;;;;;5153015;27;20663;-66
2021/07/24 09:39:25;;;;;;;10.40;6.80;;;28.40;99.90;;;;;;5152583;27;20197;-66
2021/07/24 09:42:13;;;;;;;11.57;6.60;;;28.60;99.90;;;;;;5152549;27;20190;-66
2021/07/24 09:45:08;;;;;;;11.38;7.15;;;28.90;99.90;;;;;;5153352;27;20234;-66
2021/07/24 09:47:56;;;;;;;10.52;6.07;;;29.00;99.90;;;;;;5153108;27;20315;-67
2021/07/24 09:50:48;;;;;;;7.68;6.60;;;29.10;99.90;;;;;;5152402;27;20579;-66
2021/07/24 09:53:40;;;;;;;11.13;6.50;;;28.70;99.90;;;;;;5152107;27;20233;-66
2021/07/24 09:56:40;;;;;;;9.18;6.40;;;28.50;99.90;;;;;;5153050;27;20205;-66
2021/07/24 09:59:30;;;;;;;8.65;6.35;;;28.90;99.90;;;;;;5153656;27;20648;-66
2021/07/24 10:02:30;;;;;;;10.77;6.57;;;28.60;99.90;;;;;;5152943;27;20198;-66
2021/07/24 10:05:19;;;;;;;9.60;6.50;;;28.60;99.90;;;;;;5152390;27;20198;-66
2021/07/24 10:08:11;;;;;;;10.65;6.35;;;28.60;99.90;;;;;;5152309;27;20197;-66
2021/07/24 10:10:59;;;;;;;10.93;6.15;;;29.10;99.90;;;;;;5152098;27;20193;-66
2021/07/24 10:13:47;;;;;;;14.73;6.75;;;29.00;99.90;;;;;;5151785;27;20220;-66
2021/07/24 10:16:35;;;;;;;9.43;6.28;;;28.30;99.90;;;;;;5152050;27;20209;-66
2021/07/24 10:19:24;;;;;;;11.20;6.80;;;27.90;99.90;;;;;;5152642;27;20322;-66
2021/07/24 10:22:13;;;;;;;9.10;6.20;;;28.20;99.90;;;;;;5151844;27;20217;-66
2021/07/24 10:25:02;;;;;;;7.88;6.15;;;28.50;99.90;;;;;;5152036;27;20205;-66
2021/07/24 10:27:50;;;;;;;9.70;6.03;;;29.20;99.90;;;;;;5152223;27;20213;-66
2021/07/24 10:30:38;;;;;;;10.05;6.05;;;29.60;99.90;;;;;;5152917;27;20198;-66
2021/07/24 10:33:26;;;;;;;7.88;5.80;;;30.00;99.90;;;;;;5151508;27;20222;-66
2021/07/24 10:36:17;;;;;;;7.88;6.03;;;30.00;99.00;;;;;;5152215;27;20194;-66
2021/07/24 10:39:05;;;;;;;13.25;5.75;;;30.00;98.80;;;;;;5152037;27;20280;-66
2021/07/24 10:42:08;;;;;;;9.40;5.90;;;30.10;92.80;;;;;;5151750;27;20197;-66
2021/07/24 10:44:56;;;;;;;7.82;5.40;;;30.10;93.30;;;;;;5152559;27;20305;-66
2021/07/24 10:48:25;;;;;;;8.70;6.03;;;29.90;90.80;;;;;;5151292;27;20536;-66
2021/07/24 10:51:16;;;;;;;8.07;5.10;;;30.10;85.10;;;;;;5116387;27;20209;-66
2021/07/24 10:54:07;;;;;;;10.25;5.93;;;30.30;89.50;;;;;;5151206;27;20221;-66
2021/07/24 10:56:58;;;;;;;12.80;6.00;;;30.50;93.10;;;;;;5134052;27;20201;-66
2021/07/24 10:59:46;;;;;;;9.38;6.07;;;30.60;88.30;;;;;;5151071;27;20197;-66
2021/07/24 11:02:46;;;;;;;11.82;6.30;;;30.60;86.50;;;;;;5151993;27;20190;-66
2021/07/24 11:05:34;;;;;;;9.23;5.97;;;30.40;84.90;;;;;;5151915;27;20194;-66
2021/07/24 11:08:22;;;;;;;7.70;5.90;;;30.30;86.30;;;;;;5151867;27;20196;-66
2021/07/24 11:11:20;;;;;;;8.10;5.80;;;30.30;84.10;;;;;;5152213;27;20194;-66
2021/07/24 11:14:10;;;;;;;11.73;5.70;;;30.20;85.70;;;;;;5151585;27;20607;-66
2021/07/24 11:17:18;;;;;;;10.90;6.38;;;30.20;83.20;;;;;;5151661;27;20249;-66
2021/07/24 11:20:49;;;;;;;10.18;6.43;;;30.50;85.50;;;;;;5151255;27;20205;-66
2021/07/24 11:24:14;;;;;;;7.60;5.90;;;30.30;84.40;;;;;;5151171;27;20201;-66
2021/07/24 11:27:09;;;;;;;7.80;5.72;;;30.00;85.40;;;;;;5151587;27;20660;-66
2021/07/24 11:30:22;;;;;;;11.05;6.10;;;29.60;81.60;;;;;;5151452;27;20629;-66
2021/07/24 11:33:20;;;;;;;14.77;6.70;;;28.90;87.30;;;;;;5151405;27;20213;-66
2021/07/24 11:36:12;;;;;;;9.50;6.13;;;28.40;87.20;;;;;;5152265;27;20197;-66
2021/07/24 11:39:03;;;;;;;12.60;5.97;;;28.40;90.90;;;;;;5153318;27;20197;-66
2021/07/24 11:41:50;;;;;;;11.13;6.15;;;28.90;92.40;;;;;;5154888;27;20217;-66
2021/07/24 11:44:38;;;;;;;11.77;6.72;;;29.00;89.30;;;;;;5155744;27;20201;-66
2021/07/24 11:47:27;;;;;;;10.75;6.32;;;29.10;87.10;;;;;;5155465;27;20224;-66
2021/07/24 11:50:18;;;;;;;10.70;6.43;;;29.00;89.00;;;;;;5155209;27;20217;-66
2021/07/24 11:53:05;;;;;;;8.45;6.30;;;29.40;87.40;;;;;;5154392;27;20717;-66
2021/07/24 11:55:53;;;;;;;11.57;6.38;;;29.70;89.10;;;;;;5154794;27;20209;-66
2021/07/24 11:58:41;;;;;;;8.50;6.50;;;29.70;88.20;;;;;;5154748;27;20198;-66
2021/07/24 12:01:29;;;;;;;8.18;6.22;;;30.00;92.10;;;;;;5154730;27;20198;-66
2021/07/24 12:04:19;;;;;;;9.73;6.65;;;30.50;87.10;;;;;;5154560;27;20793;-66
2021/07/24 12:07:07;;;;;;;10.98;6.47;;;31.30;86.20;;;;;;5155077;27;20198;-66
2021/07/24 12:09:54;;;;;;;13.95;5.97;;;31.30;84.40;;;;;;5154529;27;20193;-66
2021/07/24 12:12:53;;;;;;;9.65;6.07;;;31.40;85.70;;;;;;5155316;27;20223;-66
2021/07/24 12:16:05;;;;;;;11.05;6.40;;;31.40;81.00;;;;;;5154563;27;20209;-66
2021/07/24 12:19:04;;;;;;;14.63;6.28;;;31.50;83.50;;;;;;5154971;27;20231;-66
2021/07/24 12:21:57;;;;;;;8.07;6.13;;;31.70;79.50;;;;;;5154516;27;20261;-67
2021/07/24 12:24:46;;;;;;;10.40;6.30;;;31.90;75.50;;;;;;5154288;27;20205;-66
2021/07/24 12:27:33;;;;;;;7.80;6.10;;;32.10;78.30;;;;;;5154939;27;20209;-66
2021/07/24 12:30:27;;;;;;;10.75;6.20;;;32.10;76.60;;;;;;5154378;27;20674;-66
2021/07/24 12:33:15;;;;;;;8.50;6.30;;;32.30;74.60;;;;;;5154833;27;20217;-66
2021/07/24 12:36:02;;;;;;;9.20;6.03;;;32.10;73.50;;;;;;5153816;27;20201;-66
2021/07/24 12:38:52;;;;;;;10.50;6.15;;;32.20;73.60;;;;;;5154020;27;20282;-66
2021/07/24 12:41:40;;;;;;;9.50;6.15;;;32.50;72.70;;;;;;5154201;27;20190;-67
2021/07/24 12:44:28;;;;;;;8.32;5.75;;;32.50;71.50;;;;;;5153732;27;20201;-66
2021/07/24 12:47:16;;;;;;;7.95;6.18;;;32.40;69.30;;;;;;5154919;27;20782;-66
2021/07/24 12:50:15;;;;;;;10.63;6.32;;;32.20;67.50;;;;;;5153103;27;20200;-66
2021/07/24 12:53:02;;;;;;;8.65;5.57;;;32.10;71.00;;;;;;5153449;27;20268;-66
2021/07/24 12:55:59;;;;;;;11.50;5.93;;;32.40;69.20;;;;;;5153693;27;20197;-66
2021/07/24 12:58:51;;;;;;;10.00;6.10;;;32.50;69.70;;;;;;5153509;27;20201;-66
2021/07/24 13:01:49;;;;;;;8.82;5.93;;;31.70;67.50;;;;;;5153640;27;20198;-66
2021/07/24 13:04:42;;;;;;;6.20;5.60;;;31.50;69.90;;;;;;5153791;27;20202;-66
2021/07/24 13:07:35;;;;;;;9.45;6.38;;;31.90;72.00;;;;;;5154202;27;20280;-66
2021/07/24 13:10:29;;;;;;;9.57;6.30;;;32.10;71.60;;;;;;5153672;27;20270;-66
2021/07/24 13:13:24;;;;;;;10.32;6.07;;;32.30;70.40;;;;;;5153340;27;20229;-66
2021/07/24 13:16:19;;;;;;;11.95;6.10;;;32.80;69.20;;;;;;5153174;27;20198;-66
2021/07/24 13:19:10;;;;;;;9.68;5.80;;;33.20;69.80;;;;;;5152938;27;20205;-66
2021/07/24 13:22:04;;;;;;;9.13;5.93;;;33.00;67.50;;;;;;5153607;27;20533;-66
2021/07/24 13:25:08;;;;;;;8.23;5.72;;;32.30;64.00;;;;;;5153072;27;20269;-66
2021/07/24 13:28:14;;;;;;;8.20;5.75;;;31.90;68.90;;;;;;5153067;27;20266;-66
2021/07/24 13:31:13;;;;;;;11.40;6.30;;;32.30;68.70;;;;;;5152911;27;20187;-66
2021/07/24 13:34:07;;;;;;;10.20;6.00;;;32.60;69.90;;;;;;5153395;27;20217;-66
2021/07/24 13:37:03;;;;;;;12.52;6.10;;;33.00;67.60;;;;;;5152873;27;20343;-66
2021/07/24 13:39:52;;;;;;;8.15;6.10;;;33.10;66.80;;;;;;5153240;27;20264;-66
2021/07/24 13:42:46;;;;;;;7.30;5.90;;;33.30;63.60;;;;;;5153834;27;20197;-67
2021/07/24 13:45:43;;;;;;;9.38;6.25;;;32.90;65.60;;;;;;5152705;27;20702;-66
2021/07/24 13:48:42;;;;;;;9.57;6.28;;;33.10;71.30;;;;;;5153397;27;20209;-66
2021/07/24 13:51:39;;;;;;;15.43;7.05;;;33.70;67.00;;;;;;5153265;27;20531;-66
2021/07/24 13:54:27;;;;;;;7.97;6.07;;;34.10;66.20;;;;;;5152265;27;20237;-66
2021/07/24 13:57:14;;;;;;;11.90;6.43;;;34.00;65.10;;;;;;5152234;27;20202;-66
2021/07/24 14:00:02;;;;;;;9.65;6.25;;;34.30;67.00;;;;;;5152878;27;20204;-66
2021/07/24 14:02:50;;;;;;;8.27;6.07;;;34.10;63.50;;;;;;5152653;27;20567;-66
2021/07/24 14:05:39;;;;;;;7.45;5.65;;;34.60;63.60;;;;;;5152813;27;20202;-66
2021/07/24 14:08:27;;;;;;;11.68;6.65;;;34.30;61.30;;;;;;5152166;27;20194;-66
2021/07/24 14:11:16;;;;;;;11.75;6.53;;;34.40;61.90;;;;;;5152653;27;20221;-66
2021/07/24 14:14:04;;;;;;;11.02;6.45;;;34.90;62.50;;;;;;5152472;27;20303;-66
2021/07/24 14:16:52;;;;;;;13.23;6.50;;;34.70;59.00;;;;;;5152598;27;20198;-66
2021/07/24 14:19:39;;;;;;;10.20;6.38;;;34.50;63.60;;;;;;5153205;27;20716;-66
2021/07/24 14:22:28;;;;;;;6.28;5.60;;;34.30;60.80;;;;;;5152191;27;20205;-66
2021/07/24 14:25:16;;;;;;;12.55;6.50;;;34.30;61.60;;;;;;5152110;27;20362;-66
2021/07/24 14:28:04;;;;;;;8.32;6.60;;;33.90;59.30;;;;;;5152675;27;20253;-66
2021/07/24 14:30:52;;;;;;;10.25;6.00;;;33.80;61.70;;;;;;5151889;27;20285;-66
2021/07/24 14:33:40;;;;;;;10.20;6.18;;;33.90;65.20;;;;;;5152150;27;20214;-66
2021/07/24 14:36:27;;;;;;;7.57;6.07;;;33.60;62.90;;;;;;5151602;27;20208;-66
2021/07/24 14:39:16;;;;;;;13.05;6.85;;;33.20;59.30;;;;;;5151896;27;20198;-66